sensor_id;sensor_type;location;lat;lon;timestamp;temperature;humidity
4795;DHT22;2411;47.060;15.064;2023-05-07T00:01:07;13.00;30.10
4795;DHT22;2411;47.060;15.064;2023-05-07T00:03:35;12.80;33.90
4795;DHT22;2411;47.060;15.064;2023-05-07T00:06:04;12.80;30.00
4795;DHT22;2411;47.060;15.064;2023-05-07T00:08:31;12.80;28.90
4795;DHT22;2411;47.060;15.064;2023-05-07T00:10:58;12.70;35.70
4795;DHT22;2411;47.060;15.064;2023-05-07T00:13:26;12.60;47.50
4795;DHT22;2411;47.060;15.064;2023-05-07T00:15:54;12.60;47.20
4795;DHT22;2411;47.060;15.064;2023-05-07T00:18:22;12.50;44.10
4795;DHT22;2411;47.060;15.064;2023-05-07T00:20:49;12.50;45.10
4795;DHT22;2411;47.060;15.064;2023-05-07T00:23:16;12.40;49.90
4795;DHT22;2411;47.060;15.064;2023-05-07T00:25:44;12.40;44.10
4795;DHT22;2411;47.060;15.064;2023-05-07T00:28:11;12.30;42.60
4795;DHT22;2411;47.060;15.064;2023-05-07T00:30:38;12.20;46.20
4795;DHT22;2411;47.060;15.064;2023-05-07T00:33:06;12.20;34.00
4795;DHT22;2411;47.060;15.064;2023-05-07T00:35:33;12.10;31.90
4795;DHT22;2411;47.060;15.064;2023-05-07T00:38:00;12.10;32.50
4795;DHT22;2411;47.060;15.064;2023-05-07T00:40:28;12.00;31.20
4795;DHT22;2411;47.060;15.064;2023-05-07T00:42:55;12.00;31.70
4795;DHT22;2411;47.060;15.064;2023-05-07T00:45:27;12.00;24.50
4795;DHT22;2411;47.060;15.064;2023-05-07T00:47:56;11.90;22.70
4795;DHT22;2411;47.060;15.064;2023-05-07T00:50:25;11.80;24.00
4795;DHT22;2411;47.060;15.064;2023-05-07T00:52:53;11.70;23.30
4795;DHT22;2411;47.060;15.064;2023-05-07T00:55:22;11.70;25.90
4795;DHT22;2411;47.060;15.064;2023-05-07T00:57:50;11.60;23.10
4795;DHT22;2411;47.060;15.064;2023-05-07T01:00:19;11.50;25.00
4795;DHT22;2411;47.060;15.064;2023-05-07T01:02:47;11.50;20.00
4795;DHT22;2411;47.060;15.064;2023-05-07T01:05:17;11.50;16.20
4795;DHT22;2411;47.060;15.064;2023-05-07T01:07:46;11.50;16.80
4795;DHT22;2411;47.060;15.064;2023-05-07T01:10:14;11.50;17.40
4795;DHT22;2411;47.060;15.064;2023-05-07T01:12:42;11.40;19.10
4795;DHT22;2411;47.060;15.064;2023-05-07T01:15:11;11.30;21.10
4795;DHT22;2411;47.060;15.064;2023-05-07T01:17:40;11.20;21.30
4795;DHT22;2411;47.060;15.064;2023-05-07T01:20:08;11.20;23.10
4795;DHT22;2411;47.060;15.064;2023-05-07T01:22:41;11.20;26.40
4795;DHT22;2411;47.060;15.064;2023-05-07T01:25:10;11.10;23.90
4795;DHT22;2411;47.060;15.064;2023-05-07T01:27:37;11.10;30.10
4795;DHT22;2411;47.060;15.064;2023-05-07T01:30:05;11.10;29.20
4795;DHT22;2411;47.060;15.064;2023-05-07T01:32:43;11.10;27.50
4795;DHT22;2411;47.060;15.064;2023-05-07T01:35:13;11.00;23.00
4795;DHT22;2411;47.060;15.064;2023-05-07T01:37:41;10.90;26.00
4795;DHT22;2411;47.060;15.064;2023-05-07T01:40:09;10.90;24.10
4795;DHT22;2411;47.060;15.064;2023-05-07T01:42:37;10.80;21.30
4795;DHT22;2411;47.060;15.064;2023-05-07T01:45:05;10.80;26.20
4795;DHT22;2411;47.060;15.064;2023-05-07T01:47:33;10.80;23.70
4795;DHT22;2411;47.060;15.064;2023-05-07T01:50:02;10.80;22.70
4795;DHT22;2411;47.060;15.064;2023-05-07T01:52:30;10.60;23.10
4795;DHT22;2411;47.060;15.064;2023-05-07T01:54:58;10.50;26.70
4795;DHT22;2411;47.060;15.064;2023-05-07T01:57:25;10.60;29.50
4795;DHT22;2411;47.060;15.064;2023-05-07T01:59:52;10.60;28.00
4795;DHT22;2411;47.060;15.064;2023-05-07T02:02:20;10.50;26.60
4795;DHT22;2411;47.060;15.064;2023-05-07T02:04:47;10.60;24.60
4795;DHT22;2411;47.060;15.064;2023-05-07T02:07:15;10.50;24.50
4795;DHT22;2411;47.060;15.064;2023-05-07T02:09:42;10.60;24.90
4795;DHT22;2411;47.060;15.064;2023-05-07T02:12:09;10.40;23.50
4795;DHT22;2411;47.060;15.064;2023-05-07T02:14:37;10.30;27.90
4795;DHT22;2411;47.060;15.064;2023-05-07T02:17:04;10.30;34.90
4795;DHT22;2411;47.060;15.064;2023-05-07T02:19:31;10.30;42.30
4795;DHT22;2411;47.060;15.064;2023-05-07T02:21:59;10.20;41.30
4795;DHT22;2411;47.060;15.064;2023-05-07T02:24:26;10.10;50.80
4795;DHT22;2411;47.060;15.064;2023-05-07T02:26:54;10.20;57.80
4795;DHT22;2411;47.060;15.064;2023-05-07T02:29:21;10.20;57.50
4795;DHT22;2411;47.060;15.064;2023-05-07T02:31:48;10.20;51.80
4795;DHT22;2411;47.060;15.064;2023-05-07T02:34:20;10.10;52.40
4795;DHT22;2411;47.060;15.064;2023-05-07T02:36:47;10.10;49.10
4795;DHT22;2411;47.060;15.064;2023-05-07T02:39:15;10.10;46.30
4795;DHT22;2411;47.060;15.064;2023-05-07T02:41:42;10.10;39.90
4795;DHT22;2411;47.060;15.064;2023-05-07T02:44:09;10.00;44.10
4795;DHT22;2411;47.060;15.064;2023-05-07T02:46:37;10.00;46.50
4795;DHT22;2411;47.060;15.064;2023-05-07T02:49:04;10.10;41.00
4795;DHT22;2411;47.060;15.064;2023-05-07T02:51:31;10.10;38.40
4795;DHT22;2411;47.060;15.064;2023-05-07T02:53:59;10.10;33.30
4795;DHT22;2411;47.060;15.064;2023-05-07T02:56:28;10.10;31.70
4795;DHT22;2411;47.060;15.064;2023-05-07T02:58:55;10.00;31.40
4795;DHT22;2411;47.060;15.064;2023-05-07T03:01:22;10.00;33.00
4795;DHT22;2411;47.060;15.064;2023-05-07T03:03:50;9.90;35.20
4795;DHT22;2411;47.060;15.064;2023-05-07T03:06:18;9.90;43.00
4795;DHT22;2411;47.060;15.064;2023-05-07T03:08:45;9.90;39.20
4795;DHT22;2411;47.060;15.064;2023-05-07T03:11:12;9.80;42.20
4795;DHT22;2411;47.060;15.064;2023-05-07T03:13:40;9.70;46.40
4795;DHT22;2411;47.060;15.064;2023-05-07T03:16:07;9.70;57.30
4795;DHT22;2411;47.060;15.064;2023-05-07T03:18:34;9.80;59.50
4795;DHT22;2411;47.060;15.064;2023-05-07T03:21:02;9.80;45.90
4795;DHT22;2411;47.060;15.064;2023-05-07T03:23:29;9.80;41.80
4795;DHT22;2411;47.060;15.064;2023-05-07T03:25:57;9.80;44.00
4795;DHT22;2411;47.060;15.064;2023-05-07T03:28:24;9.70;31.20
4795;DHT22;2411;47.060;15.064;2023-05-07T03:30:51;9.70;39.00
4795;DHT22;2411;47.060;15.064;2023-05-07T03:33:19;9.70;42.30
4795;DHT22;2411;47.060;15.064;2023-05-07T03:35:46;9.70;43.20
4795;DHT22;2411;47.060;15.064;2023-05-07T03:38:13;9.60;39.00
4795;DHT22;2411;47.060;15.064;2023-05-07T03:40:41;9.60;33.30
4795;DHT22;2411;47.060;15.064;2023-05-07T03:43:08;9.60;36.00
4795;DHT22;2411;47.060;15.064;2023-05-07T03:45:36;9.70;42.30
4795;DHT22;2411;47.060;15.064;2023-05-07T03:48:03;9.70;58.90
4795;DHT22;2411;47.060;15.064;2023-05-07T03:50:31;9.70;64.20
4795;DHT22;2411;47.060;15.064;2023-05-07T03:52:58;9.80;57.50
4795;DHT22;2411;47.060;15.064;2023-05-07T03:55:25;9.80;52.60
4795;DHT22;2411;47.060;15.064;2023-05-07T03:57:53;9.70;47.20
4795;DHT22;2411;47.060;15.064;2023-05-07T04:00:21;9.60;46.10
4795;DHT22;2411;47.060;15.064;2023-05-07T04:02:49;9.60;51.10
4795;DHT22;2411;47.060;15.064;2023-05-07T04:05:16;9.60;69.90
4795;DHT22;2411;47.060;15.064;2023-05-07T04:07:44;9.60;94.90
4795;DHT22;2411;47.060;15.064;2023-05-07T04:10:11;9.60;99.90
4795;DHT22;2411;47.060;15.064;2023-05-07T04:12:40;9.70;99.90
4795;DHT22;2411;47.060;15.064;2023-05-07T04:15:08;9.80;99.90
4795;DHT22;2411;47.060;15.064;2023-05-07T04:17:35;9.90;99.90
4795;DHT22;2411;47.060;15.064;2023-05-07T04:20:03;10.00;98.00
4795;DHT22;2411;47.060;15.064;2023-05-07T04:22:31;10.00;86.80
4795;DHT22;2411;47.060;15.064;2023-05-07T04:24:58;10.10;56.00
4795;DHT22;2411;47.060;15.064;2023-05-07T04:27:43;10.20;49.50
4795;DHT22;2411;47.060;15.064;2023-05-07T04:30:29;10.30;41.90
4795;DHT22;2411;47.060;15.064;2023-05-07T04:33:14;10.20;35.70
4795;DHT22;2411;47.060;15.064;2023-05-07T04:35:43;10.30;40.00
4795;DHT22;2411;47.060;15.064;2023-05-07T04:38:11;10.30;39.00
4795;DHT22;2411;47.060;15.064;2023-05-07T04:40:38;10.30;41.90
4795;DHT22;2411;47.060;15.064;2023-05-07T04:43:06;10.30;45.20
4795;DHT22;2411;47.060;15.064;2023-05-07T04:45:35;10.40;47.80
4795;DHT22;2411;47.060;15.064;2023-05-07T04:48:02;10.40;47.60
4795;DHT22;2411;47.060;15.064;2023-05-07T04:50:30;10.50;44.50
4795;DHT22;2411;47.060;15.064;2023-05-07T04:52:58;10.60;43.00
4795;DHT22;2411;47.060;15.064;2023-05-07T04:55:25;10.70;37.60
4795;DHT22;2411;47.060;15.064;2023-05-07T04:57:53;10.60;41.20
4795;DHT22;2411;47.060;15.064;2023-05-07T05:00:20;10.60;50.00
4795;DHT22;2411;47.060;15.064;2023-05-07T05:02:48;10.60;63.00
4795;DHT22;2411;47.060;15.064;2023-05-07T05:05:15;10.70;55.20
4795;DHT22;2411;47.060;15.064;2023-05-07T05:07:42;10.80;57.60
4795;DHT22;2411;47.060;15.064;2023-05-07T05:10:10;10.90;49.80
4795;DHT22;2411;47.060;15.064;2023-05-07T05:12:38;11.00;41.10
4795;DHT22;2411;47.060;15.064;2023-05-07T05:15:06;11.10;39.70
4795;DHT22;2411;47.060;15.064;2023-05-07T05:17:33;11.20;33.60
4795;DHT22;2411;47.060;15.064;2023-05-07T05:20:02;11.30;28.70
4795;DHT22;2411;47.060;15.064;2023-05-07T05:22:30;11.30;22.80
4795;DHT22;2411;47.060;15.064;2023-05-07T05:24:58;11.40;19.60
4795;DHT22;2411;47.060;15.064;2023-05-07T05:27:25;11.60;15.70
4795;DHT22;2411;47.060;15.064;2023-05-07T05:29:53;11.90;13.90
4795;DHT22;2411;47.060;15.064;2023-05-07T05:32:20;12.00;13.50
4795;DHT22;2411;47.060;15.064;2023-05-07T05:34:47;12.20;16.30
4795;DHT22;2411;47.060;15.064;2023-05-07T05:37:15;12.30;13.70
4795;DHT22;2411;47.060;15.064;2023-05-07T05:39:42;12.30;12.00
4795;DHT22;2411;47.060;15.064;2023-05-07T05:42:10;12.50;10.80
4795;DHT22;2411;47.060;15.064;2023-05-07T05:44:37;12.60;8.40
4795;DHT22;2411;47.060;15.064;2023-05-07T05:47:05;12.90;7.60
4795;DHT22;2411;47.060;15.064;2023-05-07T05:49:32;12.90;7.60
4795;DHT22;2411;47.060;15.064;2023-05-07T05:52:00;12.90;6.00
4795;DHT22;2411;47.060;15.064;2023-05-07T05:54:28;13.20;9.00
4795;DHT22;2411;47.060;15.064;2023-05-07T05:56:57;13.40;10.30
4795;DHT22;2411;47.060;15.064;2023-05-07T05:59:24;13.60;8.90
4795;DHT22;2411;47.060;15.064;2023-05-07T06:02:10;13.70;4.80
4795;DHT22;2411;47.060;15.064;2023-05-07T06:04:38;13.50;5.90
4795;DHT22;2411;47.060;15.064;2023-05-07T06:07:05;13.60;5.20
4795;DHT22;2411;47.060;15.064;2023-05-07T06:09:33;13.80;6.10
4795;DHT22;2411;47.060;15.064;2023-05-07T06:12:00;13.90;2.70
4795;DHT22;2411;47.060;15.064;2023-05-07T06:14:28;14.20;4.20
4795;DHT22;2411;47.060;15.064;2023-05-07T06:16:55;14.30;2.70
4795;DHT22;2411;47.060;15.064;2023-05-07T06:19:23;14.50;2.40
4795;DHT22;2411;47.060;15.064;2023-05-07T06:21:51;14.40;1.00
4795;DHT22;2411;47.060;15.064;2023-05-07T06:24:18;14.30;1.00
4795;DHT22;2411;47.060;15.064;2023-05-07T06:26:45;14.30;1.00
4795;DHT22;2411;47.060;15.064;2023-05-07T06:29:13;14.40;1.00
4795;DHT22;2411;47.060;15.064;2023-05-07T06:31:40;14.50;1.00
4795;DHT22;2411;47.060;15.064;2023-05-07T06:34:08;14.70;1.00
4795;DHT22;2411;47.060;15.064;2023-05-07T06:36:35;14.90;1.00
4795;DHT22;2411;47.060;15.064;2023-05-07T06:39:03;14.70;1.00
4795;DHT22;2411;47.060;15.064;2023-05-07T06:41:30;14.90;1.00
4795;DHT22;2411;47.060;15.064;2023-05-07T06:43:57;15.00;1.00
4795;DHT22;2411;47.060;15.064;2023-05-07T06:46:25;14.90;1.00
4795;DHT22;2411;47.060;15.064;2023-05-07T06:48:52;14.80;1.00
4795;DHT22;2411;47.060;15.064;2023-05-07T06:51:20;14.70;1.00
4795;DHT22;2411;47.060;15.064;2023-05-07T06:53:47;14.90;1.00
4795;DHT22;2411;47.060;15.064;2023-05-07T06:56:15;15.10;1.00
4795;DHT22;2411;47.060;15.064;2023-05-07T06:58:42;15.30;1.00
4795;DHT22;2411;47.060;15.064;2023-05-07T07:01:10;15.40;1.00
4795;DHT22;2411;47.060;15.064;2023-05-07T07:03:37;15.40;1.00
4795;DHT22;2411;47.060;15.064;2023-05-07T07:06:04;15.60;1.00
4795;DHT22;2411;47.060;15.064;2023-05-07T07:08:32;15.70;1.00
4795;DHT22;2411;47.060;15.064;2023-05-07T07:11:00;15.90;1.00
4795;DHT22;2411;47.060;15.064;2023-05-07T07:13:27;16.10;1.00
4795;DHT22;2411;47.060;15.064;2023-05-07T07:15:55;16.20;1.00
4795;DHT22;2411;47.060;15.064;2023-05-07T07:18:23;16.20;1.00
4795;DHT22;2411;47.060;15.064;2023-05-07T07:20:50;16.30;1.00
4795;DHT22;2411;47.060;15.064;2023-05-07T07:23:18;16.40;1.00
4795;DHT22;2411;47.060;15.064;2023-05-07T07:25:46;16.50;1.00
4795;DHT22;2411;47.060;15.064;2023-05-07T07:28:13;16.70;1.00
4795;DHT22;2411;47.060;15.064;2023-05-07T07:30:58;16.90;1.00
4795;DHT22;2411;47.060;15.064;2023-05-07T07:33:26;17.00;1.00
4795;DHT22;2411;47.060;15.064;2023-05-07T07:35:55;17.00;1.00
4795;DHT22;2411;47.060;15.064;2023-05-07T07:38:22;17.00;1.00
4795;DHT22;2411;47.060;15.064;2023-05-07T07:40:49;17.10;1.00
4795;DHT22;2411;47.060;15.064;2023-05-07T07:43:17;17.10;1.00
4795;DHT22;2411;47.060;15.064;2023-05-07T07:45:44;17.20;1.00
4795;DHT22;2411;47.060;15.064;2023-05-07T07:48:13;17.20;1.00
4795;DHT22;2411;47.060;15.064;2023-05-07T07:50:40;17.50;1.00
4795;DHT22;2411;47.060;15.064;2023-05-07T07:53:11;17.60;1.00
4795;DHT22;2411;47.060;15.064;2023-05-07T07:55:39;17.60;1.00
4795;DHT22;2411;47.060;15.064;2023-05-07T07:58:07;17.70;1.00
4795;DHT22;2411;47.060;15.064;2023-05-07T08:00:34;17.60;1.00
4795;DHT22;2411;47.060;15.064;2023-05-07T08:03:02;17.80;1.00
4795;DHT22;2411;47.060;15.064;2023-05-07T08:05:30;18.00;1.00
4795;DHT22;2411;47.060;15.064;2023-05-07T08:07:57;17.80;1.00
4795;DHT22;2411;47.060;15.064;2023-05-07T08:10:25;17.90;1.00
4795;DHT22;2411;47.060;15.064;2023-05-07T08:12:53;18.10;1.00
4795;DHT22;2411;47.060;15.064;2023-05-07T08:15:20;18.00;1.00
4795;DHT22;2411;47.060;15.064;2023-05-07T08:17:48;18.10;1.00
4795;DHT22;2411;47.060;15.064;2023-05-07T08:20:15;17.90;1.00
4795;DHT22;2411;47.060;15.064;2023-05-07T08:22:43;18.10;1.00
4795;DHT22;2411;47.060;15.064;2023-05-07T08:25:10;18.10;1.00
4795;DHT22;2411;47.060;15.064;2023-05-07T08:27:37;18.10;1.00
4795;DHT22;2411;47.060;15.064;2023-05-07T08:30:05;18.20;1.00
4795;DHT22;2411;47.060;15.064;2023-05-07T08:32:33;18.50;1.00
4795;DHT22;2411;47.060;15.064;2023-05-07T08:35:00;18.50;1.00
4795;DHT22;2411;47.060;15.064;2023-05-07T08:37:28;18.50;1.00
4795;DHT22;2411;47.060;15.064;2023-05-07T08:39:55;18.80;1.00
4795;DHT22;2411;47.060;15.064;2023-05-07T08:42:23;19.00;1.00
4795;DHT22;2411;47.060;15.064;2023-05-07T08:44:52;19.00;1.00
4795;DHT22;2411;47.060;15.064;2023-05-07T08:47:28;19.10;6.20
4795;DHT22;2411;47.060;15.064;2023-05-07T08:49:56;18.90;1.00
4795;DHT22;2411;47.060;15.064;2023-05-07T08:52:24;19.00;1.00
4795;DHT22;2411;47.060;15.064;2023-05-07T08:54:52;19.20;1.00
4795;DHT22;2411;47.060;15.064;2023-05-07T08:57:19;19.50;1.00
4795;DHT22;2411;47.060;15.064;2023-05-07T08:59:48;19.40;1.00
4795;DHT22;2411;47.060;15.064;2023-05-07T09:02:15;19.30;1.00
4795;DHT22;2411;47.060;15.064;2023-05-07T09:04:43;19.30;1.00
4795;DHT22;2411;47.060;15.064;2023-05-07T09:07:11;19.40;1.00
4795;DHT22;2411;47.060;15.064;2023-05-07T09:09:38;19.40;1.00
4795;DHT22;2411;47.060;15.064;2023-05-07T09:12:06;19.30;1.00
4795;DHT22;2411;47.060;15.064;2023-05-07T09:14:51;19.80;5.60
4795;DHT22;2411;47.060;15.064;2023-05-07T09:17:37;19.40;1.00
4795;DHT22;2411;47.060;15.064;2023-05-07T09:20:23;19.50;1.00
4795;DHT22;2411;47.060;15.064;2023-05-07T09:23:09;19.40;1.00
4795;DHT22;2411;47.060;15.064;2023-05-07T09:25:37;19.80;1.00
4795;DHT22;2411;47.060;15.064;2023-05-07T09:28:04;19.80;1.00
4795;DHT22;2411;47.060;15.064;2023-05-07T09:30:36;20.00;1.00
4795;DHT22;2411;47.060;15.064;2023-05-07T09:33:04;20.00;1.00
4795;DHT22;2411;47.060;15.064;2023-05-07T09:35:31;20.00;1.00
4795;DHT22;2411;47.060;15.064;2023-05-07T09:38:00;20.10;1.00
4795;DHT22;2411;47.060;15.064;2023-05-07T09:40:30;19.90;1.00
4795;DHT22;2411;47.060;15.064;2023-05-07T09:43:09;20.00;1.00
4795;DHT22;2411;47.060;15.064;2023-05-07T09:45:37;19.90;1.00
4795;DHT22;2411;47.060;15.064;2023-05-07T09:48:06;20.20;1.00
4795;DHT22;2411;47.060;15.064;2023-05-07T09:50:47;20.50;1.00
4795;DHT22;2411;47.060;15.064;2023-05-07T09:53:16;20.60;1.00
4795;DHT22;2411;47.060;15.064;2023-05-07T09:55:44;20.70;1.00
4795;DHT22;2411;47.060;15.064;2023-05-07T09:58:12;21.00;1.00
4795;DHT22;2411;47.060;15.064;2023-05-07T10:00:42;21.10;1.00
4795;DHT22;2411;47.060;15.064;2023-05-07T10:03:10;21.20;1.00
4795;DHT22;2411;47.060;15.064;2023-05-07T10:05:38;21.40;1.00
4795;DHT22;2411;47.060;15.064;2023-05-07T10:08:07;21.30;1.00
4795;DHT22;2411;47.060;15.064;2023-05-07T10:10:35;21.40;1.00
4795;DHT22;2411;47.060;15.064;2023-05-07T10:13:02;21.60;1.00
4795;DHT22;2411;47.060;15.064;2023-05-07T10:15:34;21.90;1.00
4795;DHT22;2411;47.060;15.064;2023-05-07T10:18:03;22.00;1.00
4795;DHT22;2411;47.060;15.064;2023-05-07T10:20:32;21.80;1.00
4795;DHT22;2411;47.060;15.064;2023-05-07T10:23:01;21.50;1.00
4795;DHT22;2411;47.060;15.064;2023-05-07T10:25:32;21.10;1.00
4795;DHT22;2411;47.060;15.064;2023-05-07T10:28:06;21.10;1.00
4795;DHT22;2411;47.060;15.064;2023-05-07T10:33:24;21.40;1.00
4795;DHT22;2411;47.060;15.064;2023-05-07T10:35:57;21.30;1.00
4795;DHT22;2411;47.060;15.064;2023-05-07T10:38:27;21.10;1.00
4795;DHT22;2411;47.060;15.064;2023-05-07T10:41:14;21.10;1.00
4795;DHT22;2411;47.060;15.064;2023-05-07T10:43:45;21.00;1.00
4795;DHT22;2411;47.060;15.064;2023-05-07T10:46:18;21.10;1.00
4795;DHT22;2411;47.060;15.064;2023-05-07T10:49:06;21.30;1.00
4795;DHT22;2411;47.060;15.064;2023-05-07T10:51:34;21.40;1.00
4795;DHT22;2411;47.060;15.064;2023-05-07T10:56:42;21.60;1.00
4795;DHT22;2411;47.060;15.064;2023-05-07T11:02:04;21.50;1.00
4795;DHT22;2411;47.060;15.064;2023-05-07T11:04:33;21.20;1.00
4795;DHT22;2411;47.060;15.064;2023-05-07T11:15:09;21.80;1.00
4795;DHT22;2411;47.060;15.064;2023-05-07T11:17:57;22.10;1.00
4795;DHT22;2411;47.060;15.064;2023-05-07T11:20:48;22.10;1.00
4795;DHT22;2411;47.060;15.064;2023-05-07T11:26:10;22.50;1.00
4795;DHT22;2411;47.060;15.064;2023-05-07T11:28:42;22.10;1.00
4795;DHT22;2411;47.060;15.064;2023-05-07T11:31:11;21.70;1.00
4795;DHT22;2411;47.060;15.064;2023-05-07T11:33:39;21.80;1.00
4795;DHT22;2411;47.060;15.064;2023-05-07T11:36:08;22.30;1.00
4795;DHT22;2411;47.060;15.064;2023-05-07T11:38:36;22.40;1.00
4795;DHT22;2411;47.060;15.064;2023-05-07T11:41:04;22.50;1.00
4795;DHT22;2411;47.060;15.064;2023-05-07T11:43:32;22.60;1.00
4795;DHT22;2411;47.060;15.064;2023-05-07T11:46:08;22.60;1.00
4795;DHT22;2411;47.060;15.064;2023-05-07T11:48:36;22.40;1.00
4795;DHT22;2411;47.060;15.064;2023-05-07T11:51:05;22.00;1.00
4795;DHT22;2411;47.060;15.064;2023-05-07T11:53:38;21.90;1.00
4795;DHT22;2411;47.060;15.064;2023-05-07T11:56:13;22.00;1.00
4795;DHT22;2411;47.060;15.064;2023-05-07T11:58:41;21.90;1.00
4795;DHT22;2411;47.060;15.064;2023-05-07T12:01:10;21.80;1.00
4795;DHT22;2411;47.060;15.064;2023-05-07T12:03:40;21.80;1.00
4795;DHT22;2411;47.060;15.064;2023-05-07T12:06:15;22.00;1.00
4795;DHT22;2411;47.060;15.064;2023-05-07T12:08:44;22.00;6.10
4795;DHT22;2411;47.060;15.064;2023-05-07T12:11:32;22.00;1.00
4795;DHT22;2411;47.060;15.064;2023-05-07T12:13:59;21.80;1.00
4795;DHT22;2411;47.060;15.064;2023-05-07T12:16:27;21.80;1.00
4795;DHT22;2411;47.060;15.064;2023-05-07T12:18:54;21.60;1.00
4795;DHT22;2411;47.060;15.064;2023-05-07T12:21:23;21.50;1.00
4795;DHT22;2411;47.060;15.064;2023-05-07T12:23:51;21.50;1.00
4795;DHT22;2411;47.060;15.064;2023-05-07T12:26:19;21.40;1.00
4795;DHT22;2411;47.060;15.064;2023-05-07T12:28:48;21.30;1.00
4795;DHT22;2411;47.060;15.064;2023-05-07T12:31:15;21.10;1.00
4795;DHT22;2411;47.060;15.064;2023-05-07T12:33:43;21.00;1.00
4795;DHT22;2411;47.060;15.064;2023-05-07T12:36:12;20.60;1.00
4795;DHT22;2411;47.060;15.064;2023-05-07T12:38:40;20.60;1.00
4795;DHT22;2411;47.060;15.064;2023-05-07T12:41:10;20.40;1.00
4795;DHT22;2411;47.060;15.064;2023-05-07T12:43:38;20.10;1.00
4795;DHT22;2411;47.060;15.064;2023-05-07T12:46:07;20.00;1.00
4795;DHT22;2411;47.060;15.064;2023-05-07T12:48:43;19.80;1.00
4795;DHT22;2411;47.060;15.064;2023-05-07T12:51:10;19.60;1.00
4795;DHT22;2411;47.060;15.064;2023-05-07T12:53:41;19.40;1.00
4795;DHT22;2411;47.060;15.064;2023-05-07T12:56:09;19.30;1.00
4795;DHT22;2411;47.060;15.064;2023-05-07T12:58:37;19.20;1.00
4795;DHT22;2411;47.060;15.064;2023-05-07T13:01:08;19.10;1.00
4795;DHT22;2411;47.060;15.064;2023-05-07T13:03:38;18.90;1.00
4795;DHT22;2411;47.060;15.064;2023-05-07T13:06:07;18.90;1.00
4795;DHT22;2411;47.060;15.064;2023-05-07T13:08:39;18.80;1.00
4795;DHT22;2411;47.060;15.064;2023-05-07T13:11:13;18.60;1.00
4795;DHT22;2411;47.060;15.064;2023-05-07T13:13:41;18.40;1.00
4795;DHT22;2411;47.060;15.064;2023-05-07T13:16:10;18.40;1.00
4795;DHT22;2411;47.060;15.064;2023-05-07T13:18:39;18.20;1.00
4795;DHT22;2411;47.060;15.064;2023-05-07T13:21:07;18.00;1.00
4795;DHT22;2411;47.060;15.064;2023-05-07T13:23:35;17.60;1.00
4795;DHT22;2411;47.060;15.064;2023-05-07T13:26:02;17.60;1.00
4795;DHT22;2411;47.060;15.064;2023-05-07T13:28:34;17.40;1.00
4795;DHT22;2411;47.060;15.064;2023-05-07T13:31:02;17.30;1.00
4795;DHT22;2411;47.060;15.064;2023-05-07T13:33:29;17.20;1.00
4795;DHT22;2411;47.060;15.064;2023-05-07T13:35:57;17.10;1.00
4795;DHT22;2411;47.060;15.064;2023-05-07T13:38:24;17.00;1.00
4795;DHT22;2411;47.060;15.064;2023-05-07T13:40:52;17.00;1.00
4795;DHT22;2411;47.060;15.064;2023-05-07T13:43:20;17.10;1.00
4795;DHT22;2411;47.060;15.064;2023-05-07T13:45:47;16.90;1.00
4795;DHT22;2411;47.060;15.064;2023-05-07T13:48:15;16.80;1.00
4795;DHT22;2411;47.060;15.064;2023-05-07T13:50:42;16.70;1.00
4795;DHT22;2411;47.060;15.064;2023-05-07T13:53:10;16.60;1.00
4795;DHT22;2411;47.060;15.064;2023-05-07T13:55:37;16.30;1.00
4795;DHT22;2411;47.060;15.064;2023-05-07T13:58:05;16.20;1.00
4795;DHT22;2411;47.060;15.064;2023-05-07T14:00:33;15.90;1.00
4795;DHT22;2411;47.060;15.064;2023-05-07T14:03:01;15.90;1.00
4795;DHT22;2411;47.060;15.064;2023-05-07T14:05:29;15.90;1.00
4795;DHT22;2411;47.060;15.064;2023-05-07T14:07:59;15.70;5.80
4795;DHT22;2411;47.060;15.064;2023-05-07T14:10:27;15.50;1.00
4795;DHT22;2411;47.060;15.064;2023-05-07T14:12:54;15.40;2.40
4795;DHT22;2411;47.060;15.064;2023-05-07T14:15:22;15.40;7.00
4795;DHT22;2411;47.060;15.064;2023-05-07T14:17:49;15.30;3.80
4795;DHT22;2411;47.060;15.064;2023-05-07T14:20:17;15.50;1.60
4795;DHT22;2411;47.060;15.064;2023-05-07T14:22:44;15.60;1.00
4795;DHT22;2411;47.060;15.064;2023-05-07T14:25:12;15.60;1.00
4795;DHT22;2411;47.060;15.064;2023-05-07T14:27:40;15.60;3.00
4795;DHT22;2411;47.060;15.064;2023-05-07T14:30:08;15.50;1.90
4795;DHT22;2411;47.060;15.064;2023-05-07T14:32:35;15.60;1.00
4795;DHT22;2411;47.060;15.064;2023-05-07T14:35:03;15.70;1.00
4795;DHT22;2411;47.060;15.064;2023-05-07T14:37:31;15.90;3.60
4795;DHT22;2411;47.060;15.064;2023-05-07T14:39:58;16.00;5.10
4795;DHT22;2411;47.060;15.064;2023-05-07T14:42:26;16.00;1.00
4795;DHT22;2411;47.060;15.064;2023-05-07T14:44:53;16.00;1.00
4795;DHT22;2411;47.060;15.064;2023-05-07T14:47:20;15.80;1.00
4795;DHT22;2411;47.060;15.064;2023-05-07T14:49:48;15.80;1.00
4795;DHT22;2411;47.060;15.064;2023-05-07T14:52:15;15.80;1.00
4795;DHT22;2411;47.060;15.064;2023-05-07T14:54:42;16.00;1.00
4795;DHT22;2411;47.060;15.064;2023-05-07T14:57:10;16.10;1.00
4795;DHT22;2411;47.060;15.064;2023-05-07T14:59:40;16.50;1.00
4795;DHT22;2411;47.060;15.064;2023-05-07T15:02:09;16.60;1.00
4795;DHT22;2411;47.060;15.064;2023-05-07T15:04:37;16.80;1.00
4795;DHT22;2411;47.060;15.064;2023-05-07T15:07:06;16.70;1.00
4795;DHT22;2411;47.060;15.064;2023-05-07T15:09:34;16.70;1.00
4795;DHT22;2411;47.060;15.064;2023-05-07T15:12:01;16.60;1.00
4795;DHT22;2411;47.060;15.064;2023-05-07T15:14:29;16.60;1.00
4795;DHT22;2411;47.060;15.064;2023-05-07T15:16:56;16.40;1.00
4795;DHT22;2411;47.060;15.064;2023-05-07T15:19:24;16.20;1.00
4795;DHT22;2411;47.060;15.064;2023-05-07T15:21:57;16.10;1.00
4795;DHT22;2411;47.060;15.064;2023-05-07T15:24:25;16.00;1.00
4795;DHT22;2411;47.060;15.064;2023-05-07T15:26:52;15.80;1.00
4795;DHT22;2411;47.060;15.064;2023-05-07T15:29:19;15.70;1.00
4795;DHT22;2411;47.060;15.064;2023-05-07T15:31:47;15.70;1.00
4795;DHT22;2411;47.060;15.064;2023-05-07T15:34:15;15.60;1.00
4795;DHT22;2411;47.060;15.064;2023-05-07T15:36:42;15.50;1.00
4795;DHT22;2411;47.060;15.064;2023-05-07T15:39:10;15.40;1.00
4795;DHT22;2411;47.060;15.064;2023-05-07T15:41:37;15.30;1.00
4795;DHT22;2411;47.060;15.064;2023-05-07T15:44:05;15.40;1.00
4795;DHT22;2411;47.060;15.064;2023-05-07T15:46:32;15.50;1.00
4795;DHT22;2411;47.060;15.064;2023-05-07T15:49:02;15.60;1.00
4795;DHT22;2411;47.060;15.064;2023-05-07T15:51:33;15.60;1.00
4795;DHT22;2411;47.060;15.064;2023-05-07T15:54:01;15.50;1.00
4795;DHT22;2411;47.060;15.064;2023-05-07T15:56:28;15.50;1.00
4795;DHT22;2411;47.060;15.064;2023-05-07T15:58:59;15.50;1.00
4795;DHT22;2411;47.060;15.064;2023-05-07T16:01:28;15.50;1.00
4795;DHT22;2411;47.060;15.064;2023-05-07T16:03:55;15.40;1.00
4795;DHT22;2411;47.060;15.064;2023-05-07T16:06:23;15.40;1.00
4795;DHT22;2411;47.060;15.064;2023-05-07T16:08:50;15.30;1.00
4795;DHT22;2411;47.060;15.064;2023-05-07T16:11:18;15.30;1.00
4795;DHT22;2411;47.060;15.064;2023-05-07T16:13:45;15.40;5.30
4795;DHT22;2411;47.060;15.064;2023-05-07T16:16:13;15.30;6.20
4795;DHT22;2411;47.060;15.064;2023-05-07T16:18:40;15.20;21.20
4795;DHT22;2411;47.060;15.064;2023-05-07T16:21:07;15.00;8.10
4795;DHT22;2411;47.060;15.064;2023-05-07T16:23:34;15.00;8.10
4795;DHT22;2411;47.060;15.064;2023-05-07T16:26:03;14.90;9.00